Time;durP1;ratioP1;P1;durP2;ratioP2;P2;SDS_P1;SDS_P2;PMS_P1;PMS_P2;Temp;Humidity;BMP_temperature;BMP_pressure;BME280_temperature;BME280_humidity;BME280_pressure;Samples;Min_cycle;Max_cycle;Signal;HPM_P1;HPM_P2
2023/07/27 00:00:13;;;;;;;1.80;1.63;;;;;;;;;;5086318;28;20376;-79
2023/07/27 00:02:40;;;;;;;1.88;1.70;;;;;;;;;;5083994;28;20387;-78
2023/07/27 00:05:06;;;;;;;3.72;1.90;;;;;;;;;;5087192;28;20449;-79
2023/07/27 00:07:32;;;;;;;2.17;1.65;;;;;;;;;;5089186;28;20413;-78
2023/07/27 00:09:58;;;;;;;4.00;1.80;;;;;;;;;;5096713;28;20412;-78
2023/07/27 00:12:24;;;;;;;2.22;1.88;;;;;;;;;;5085721;28;20476;-79
2023/07/27 00:14:51;;;;;;;2.75;1.95;;;;;;;;;;5067736;28;20392;-79
2023/07/27 00:17:17;;;;;;;2.80;1.90;;;;;;;;;;5099834;28;20374;-79
2023/07/27 00:19:43;;;;;;;1.70;1.60;;;;;;;;;;5088380;28;20384;-79
2023/07/27 00:22:09;;;;;;;3.17;2.00;;;;;;;;;;5086660;28;20406;-78
2023/07/27 00:24:35;;;;;;;1.77;1.42;;;;;;;;;;5089230;28;20417;-79
2023/07/27 00:27:01;;;;;;;2.30;1.70;;;;;;;;;;5094661;28;20734;-79
2023/07/27 00:29:27;;;;;;;1.75;1.65;;;;;;;;;;5086117;28;20395;-79
2023/07/27 00:31:53;;;;;;;2.40;1.65;;;;;;;;;;5085421;28;20419;-79
2023/07/27 00:34:19;;;;;;;2.25;1.80;;;;;;;;;;5086010;28;20775;-79
2023/07/27 00:36:45;;;;;;;1.90;1.67;;;;;;;;;;5086051;28;20380;-79
2023/07/27 00:39:12;;;;;;;3.70;2.00;;;;;;;;;;5085812;28;20463;-78
2023/07/27 00:41:40;;;;;;;1.73;1.50;;;;;;;;;;5086087;28;20484;-78
2023/07/27 00:44:06;;;;;;;1.90;1.80;;;;;;;;;;5085970;28;20426;-78
2023/07/27 00:46:32;;;;;;;1.98;1.77;;;;;;;;;;5067962;28;20383;-78
2023/07/27 00:48:58;;;;;;;1.77;1.67;;;;;;;;;;5085974;28;20425;-78
2023/07/27 00:51:24;;;;;;;2.85;1.60;;;;;;;;;;5085629;28;20379;-79
2023/07/27 00:53:50;;;;;;;2.00;1.80;;;;;;;;;;5085542;28;20892;-78
2023/07/27 00:56:16;;;;;;;2.30;1.70;;;;;;;;;;5085513;28;20448;-78
2023/07/27 00:58:44;;;;;;;1.67;1.58;;;;;;;;;;5085575;28;20384;-78
2023/07/27 01:01:11;;;;;;;1.70;1.60;;;;;;;;;;5086246;28;20402;-79
2023/07/27 01:03:37;;;;;;;3.42;1.55;;;;;;;;;;5085655;28;20384;-78
2023/07/27 01:06:03;;;;;;;1.95;1.60;;;;;;;;;;5086259;28;20391;-78
2023/07/27 01:08:30;;;;;;;2.40;1.70;;;;;;;;;;5068827;28;20414;-78
2023/07/27 01:10:59;;;;;;;2.30;1.70;;;;;;;;;;5084604;28;20412;-78
2023/07/27 01:13:25;;;;;;;1.80;1.70;;;;;;;;;;5085700;28;20435;-78
2023/07/27 01:15:56;;;;;;;3.75;1.80;;;;;;;;;;5085508;28;20387;-78
2023/07/27 01:18:28;;;;;;;1.90;1.80;;;;;;;;;;5081238;28;20383;-78
2023/07/27 01:20:57;;;;;;;2.45;1.88;;;;;;;;;;5086475;28;20400;-78
2023/07/27 01:23:46;;;;;;;2.10;1.87;;;;;;;;;;5105020;28;20410;-78
2023/07/27 01:26:21;;;;;;;2.10;1.73;;;;;;;;;;5085634;28;20395;-78
2023/07/27 01:29:06;;;;;;;1.70;1.60;;;;;;;;;;5085024;28;20391;-78
2023/07/27 01:31:33;;;;;;;1.87;1.50;;;;;;;;;;5085162;28;20423;-78
2023/07/27 01:34:03;;;;;;;2.33;1.65;;;;;;;;;;5085249;28;20443;-78
2023/07/27 01:36:34;;;;;;;1.70;1.60;;;;;;;;;;5070299;28;20401;-79
2023/07/27 01:39:03;;;;;;;2.05;1.67;;;;;;;;;;5085050;28;20463;-79
2023/07/27 01:41:31;;;;;;;2.00;1.60;;;;;;;;;;5085065;28;20459;-78
2023/07/27 01:43:57;;;;;;;3.63;1.67;;;;;;;;;;5085467;28;20383;-78
2023/07/27 01:46:24;;;;;;;1.60;1.50;;;;;;;;;;5084643;28;20384;-78
2023/07/27 01:48:51;;;;;;;1.70;1.50;;;;;;;;;;5082686;28;20460;-79
2023/07/27 01:51:18;;;;;;;1.88;1.67;;;;;;;;;;5084078;28;20740;-78
2023/07/27 01:53:44;;;;;;;1.70;1.60;;;;;;;;;;5084749;28;20497;-78
2023/07/27 01:56:11;;;;;;;2.00;1.70;;;;;;;;;;5085190;28;20386;-78
2023/07/27 01:58:38;;;;;;;1.58;1.48;;;;;;;;;;5083267;28;20379;-78
2023/07/27 02:01:05;;;;;;;1.73;1.63;;;;;;;;;;5083112;28;20741;-78
2023/07/27 02:03:31;;;;;;;2.17;1.60;;;;;;;;;;5084885;28;20383;-78
2023/07/27 02:05:57;;;;;;;1.75;1.35;;;;;;;;;;5082519;28;20450;-78
2023/07/27 02:08:23;;;;;;;1.70;1.60;;;;;;;;;;5084272;28;20481;-78
2023/07/27 02:10:53;;;;;;;2.50;1.75;;;;;;;;;;5087627;28;20385;-78
2023/07/27 02:13:28;;;;;;;2.08;1.45;;;;;;;;;;5082588;28;20887;-80
2023/07/27 02:16:03;;;;;;;3.33;1.58;;;;;;;;;;5081628;28;20419;-80
2023/07/27 02:18:29;;;;;;;2.00;1.77;;;;;;;;;;5069233;28;20481;-80
2023/07/27 02:20:56;;;;;;;1.75;1.50;;;;;;;;;;5081668;28;20418;-80
2023/07/27 02:23:22;;;;;;;1.77;1.60;;;;;;;;;;5088716;28;20391;-80
2023/07/27 02:25:48;;;;;;;1.70;1.60;;;;;;;;;;5089308;28;20459;-79
2023/07/27 02:28:14;;;;;;;1.80;1.52;;;;;;;;;;5088585;28;20376;-79
2023/07/27 02:30:40;;;;;;;2.10;1.80;;;;;;;;;;5088150;28;20399;-78
2023/07/27 02:33:06;;;;;;;2.05;1.70;;;;;;;;;;5079916;28;20415;-79
2023/07/27 02:35:32;;;;;;;2.45;1.80;;;;;;;;;;5089019;28;20380;-79
2023/07/27 02:37:58;;;;;;;1.63;1.38;;;;;;;;;;5089136;28;20392;-79
2023/07/27 02:40:24;;;;;;;2.28;1.70;;;;;;;;;;5088088;28;20387;-80
2023/07/27 02:42:50;;;;;;;2.70;1.67;;;;;;;;;;5088291;28;20383;-79
2023/07/27 02:45:16;;;;;;;2.40;2.00;;;;;;;;;;5087496;28;20383;-80
2023/07/27 02:47:42;;;;;;;1.90;1.70;;;;;;;;;;5088341;28;20718;-80
2023/07/27 02:50:08;;;;;;;1.67;1.58;;;;;;;;;;5088895;28;20471;-80
2023/07/27 02:52:34;;;;;;;2.33;1.55;;;;;;;;;;5089049;28;20415;-79
2023/07/27 02:55:00;;;;;;;1.70;1.60;;;;;;;;;;5087030;28;20387;-79
2023/07/27 02:57:27;;;;;;;2.72;1.65;;;;;;;;;;5088736;28;20392;-80
2023/07/27 02:59:53;;;;;;;1.87;1.77;;;;;;;;;;5088803;28;20388;-79
2023/07/27 03:02:19;;;;;;;3.70;1.88;;;;;;;;;;5088959;28;20855;-79
2023/07/27 03:04:45;;;;;;;3.80;1.77;;;;;;;;;;5085003;28;20380;-80
2023/07/27 03:07:11;;;;;;;3.15;1.90;;;;;;;;;;5080797;28;20402;-80
2023/07/27 03:09:37;;;;;;;1.90;1.80;;;;;;;;;;5082159;28;20470;-80
2023/07/27 03:12:04;;;;;;;2.20;1.75;;;;;;;;;;5084218;28;20778;-80
2023/07/27 03:14:30;;;;;;;2.38;1.80;;;;;;;;;;5084683;28;20384;-80
2023/07/27 03:16:56;;;;;;;2.08;1.73;;;;;;;;;;5085570;28;20379;-80
2023/07/27 03:19:22;;;;;;;2.10;1.90;;;;;;;;;;5080981;28;20379;-80
2023/07/27 03:21:48;;;;;;;1.75;1.65;;;;;;;;;;5085967;28;20388;-79
2023/07/27 03:24:16;;;;;;;2.03;1.70;;;;;;;;;;5073680;28;20388;-80
2023/07/27 03:26:43;;;;;;;1.75;1.65;;;;;;;;;;5087962;28;20388;-80
2023/07/27 03:29:09;;;;;;;2.13;1.77;;;;;;;;;;5091226;28;20444;-79
2023/07/27 03:31:35;;;;;;;1.75;1.60;;;;;;;;;;5094592;28;20521;-80
2023/07/27 03:34:01;;;;;;;1.95;1.73;;;;;;;;;;5092901;28;20927;-80
2023/07/27 03:36:26;;;;;;;2.17;1.63;;;;;;;;;;5091372;28;20384;-80
2023/07/27 03:38:52;;;;;;;1.80;1.70;;;;;;;;;;5092393;28;20411;-79
2023/07/27 03:41:18;;;;;;;2.72;1.60;;;;;;;;;;5091582;28;20385;-80
2023/07/27 03:43:44;;;;;;;1.67;1.58;;;;;;;;;;5087226;28;20389;-80
2023/07/27 03:46:10;;;;;;;1.70;1.60;;;;;;;;;;5081854;28;20403;-79
2023/07/27 03:48:36;;;;;;;1.60;1.50;;;;;;;;;;5090124;28;20388;-80
2023/07/27 03:51:03;;;;;;;3.08;1.63;;;;;;;;;;5089268;28;21201;-79
2023/07/27 03:53:29;;;;;;;1.77;1.67;;;;;;;;;;5086510;28;20441;-79
2023/07/27 03:55:55;;;;;;;2.58;1.70;;;;;;;;;;5089115;28;20380;-80
2023/07/27 03:58:21;;;;;;;3.10;1.83;;;;;;;;;;5088749;28;20383;-79
2023/07/27 04:00:47;;;;;;;1.60;1.50;;;;;;;;;;5088228;28;20383;-79
2023/07/27 04:03:13;;;;;;;1.60;1.50;;;;;;;;;;5086973;28;20411;-79
2023/07/27 04:05:39;;;;;;;2.00;1.60;;;;;;;;;;5085909;28;20376;-80
2023/07/27 04:08:05;;;;;;;2.60;1.90;;;;;;;;;;5086968;28;20450;-80
2023/07/27 04:10:31;;;;;;;2.08;1.88;;;;;;;;;;5085189;28;20387;-80
2023/07/27 04:12:58;;;;;;;1.60;1.50;;;;;;;;;;5088573;28;20959;-79
2023/07/27 04:15:24;;;;;;;4.78;1.95;;;;;;;;;;5088385;28;20390;-80
2023/07/27 04:17:50;;;;;;;2.00;1.80;;;;;;;;;;5088762;28;20760;-79
2023/07/27 04:20:16;;;;;;;2.80;2.00;;;;;;;;;;5087169;28;20379;-80
2023/07/27 04:22:42;;;;;;;2.55;2.08;;;;;;;;;;5073288;28;21095;-80
2023/07/27 04:25:09;;;;;;;2.40;1.83;;;;;;;;;;5087007;28;20467;-80
2023/07/27 04:27:35;;;;;;;2.20;1.90;;;;;;;;;;5078352;28;20395;-79
2023/07/27 04:30:01;;;;;;;1.90;1.73;;;;;;;;;;5087155;28;20394;-79
2023/07/27 04:32:27;;;;;;;2.80;1.90;;;;;;;;;;5086555;28;20471;-79
2023/07/27 04:34:53;;;;;;;2.30;1.83;;;;;;;;;;5087290;28;20429;-78
2023/07/27 04:37:20;;;;;;;2.15;1.95;;;;;;;;;;5087402;28;20388;-79
2023/07/27 04:39:46;;;;;;;2.10;1.90;;;;;;;;;;5086854;28;20384;-79
2023/07/27 04:42:12;;;;;;;2.20;2.00;;;;;;;;;;5086291;28;20404;-79
2023/07/27 04:44:38;;;;;;;2.00;1.90;;;;;;;;;;5087557;28;20786;-78
2023/07/27 04:47:04;;;;;;;2.47;1.70;;;;;;;;;;5078626;28;20475;-78
2023/07/27 04:49:31;;;;;;;2.50;1.88;;;;;;;;;;5086342;28;20414;-79
2023/07/27 04:51:57;;;;;;;2.28;1.60;;;;;;;;;;5072760;28;20379;-79
2023/07/27 04:54:23;;;;;;;1.65;1.55;;;;;;;;;;5086860;28;20395;-78
2023/07/27 04:56:49;;;;;;;2.53;1.90;;;;;;;;;;5085709;28;20445;-78
2023/07/27 04:59:15;;;;;;;2.78;2.05;;;;;;;;;;5086869;28;20394;-78
2023/07/27 05:01:41;;;;;;;2.05;1.75;;;;;;;;;;5086291;28;20388;-78
2023/07/27 05:04:07;;;;;;;2.22;1.92;;;;;;;;;;5086239;28;20421;-78
2023/07/27 05:06:34;;;;;;;1.85;1.65;;;;;;;;;;5086134;28;20379;-80
2023/07/27 05:09:00;;;;;;;3.10;2.28;;;;;;;;;;5085887;28;20407;-78
2023/07/27 05:11:26;;;;;;;2.03;1.70;;;;;;;;;;5086472;28;20419;-80
2023/07/27 05:13:52;;;;;;;2.10;1.90;;;;;;;;;;5086542;28;20457;-79
2023/07/27 05:16:18;;;;;;;2.23;2.03;;;;;;;;;;5079009;28;20388;-80
2023/07/27 05:18:44;;;;;;;1.92;1.80;;;;;;;;;;5086583;28;20384;-80
2023/07/27 05:21:10;;;;;;;2.13;1.92;;;;;;;;;;5084765;28;20445;-80
2023/07/27 05:23:36;;;;;;;2.08;1.92;;;;;;;;;;5087175;28;20379;-80
2023/07/27 05:26:03;;;;;;;3.83;2.00;;;;;;;;;;5086814;28;20387;-79
2023/07/27 05:28:29;;;;;;;2.15;1.88;;;;;;;;;;5087640;28;20848;-80
2023/07/27 05:30:55;;;;;;;2.63;2.00;;;;;;;;;;5080076;28;20402;-80
2023/07/27 05:33:21;;;;;;;2.20;2.00;;;;;;;;;;5087205;28;20502;-79
2023/07/27 05:35:50;;;;;;;2.38;2.17;;;;;;;;;;5087682;28;20417;-80
2023/07/27 05:38:19;;;;;;;2.25;2.05;;;;;;;;;;5087243;28;20403;-80
2023/07/27 05:40:45;;;;;;;2.65;2.20;;;;;;;;;;5085040;28;20384;-81
2023/07/27 05:43:11;;;;;;;3.10;2.22;;;;;;;;;;5086871;28;20413;-80
2023/07/27 05:45:38;;;;;;;2.47;2.27;;;;;;;;;;5090260;28;20468;-80
2023/07/27 05:48:05;;;;;;;2.60;2.40;;;;;;;;;;5076302;28;20434;-80
2023/07/27 05:50:31;;;;;;;3.17;2.50;;;;;;;;;;5089084;28;20737;-80
2023/07/27 05:52:57;;;;;;;3.53;2.95;;;;;;;;;;5088755;28;20444;-80
2023/07/27 05:55:23;;;;;;;3.90;2.70;;;;;;;;;;5090295;28;20863;-80
2023/07/27 05:57:49;;;;;;;2.80;2.60;;;;;;;;;;5089841;28;20384;-80
2023/07/27 06:00:15;;;;;;;3.88;2.80;;;;;;;;;;5075217;28;20437;-80
2023/07/27 06:02:41;;;;;;;3.38;3.00;;;;;;;;;;5090541;28;20399;-80
2023/07/27 06:05:08;;;;;;;2.90;2.70;;;;;;;;;;5090806;28;20384;-80
2023/07/27 06:07:34;;;;;;;4.05;3.38;;;;;;;;;;5089952;28;20392;-80
2023/07/27 06:10:00;;;;;;;3.63;3.10;;;;;;;;;;5089559;28;20380;-80
2023/07/27 06:12:26;;;;;;;3.37;3.07;;;;;;;;;;5089646;28;20756;-80
2023/07/27 06:14:52;;;;;;;4.85;3.17;;;;;;;;;;5072961;28;20391;-80
2023/07/27 06:17:18;;;;;;;3.40;3.10;;;;;;;;;;5089538;28;20383;-81
2023/07/27 06:19:44;;;;;;;3.85;3.45;;;;;;;;;;5089057;28;20455;-81
2023/07/27 06:22:10;;;;;;;5.00;3.70;;;;;;;;;;5090898;28;20435;-81
2023/07/27 06:24:36;;;;;;;4.05;3.45;;;;;;;;;;5094810;28;20443;-79
2023/07/27 06:27:02;;;;;;;5.72;3.97;;;;;;;;;;5084224;28;20443;-78
2023/07/27 06:29:28;;;;;;;4.47;3.72;;;;;;;;;;5094844;28;20914;-79
2023/07/27 06:31:54;;;;;;;4.20;3.70;;;;;;;;;;5092105;28;20415;-78
2023/07/27 06:34:20;;;;;;;5.30;4.72;;;;;;;;;;5093045;28;20387;-79
2023/07/27 06:36:45;;;;;;;5.63;3.75;;;;;;;;;;5087329;28;20442;-79
2023/07/27 06:39:11;;;;;;;4.68;4.07;;;;;;;;;;5090994;28;20404;-79
2023/07/27 06:41:37;;;;;;;5.82;4.53;;;;;;;;;;5090003;28;20376;-80
2023/07/27 06:44:04;;;;;;;5.30;4.32;;;;;;;;;;5065760;28;20413;-78
2023/07/27 06:46:31;;;;;;;5.13;4.25;;;;;;;;;;5076553;28;20380;-78
2023/07/27 06:48:57;;;;;;;5.60;4.05;;;;;;;;;;5089274;28;20388;-78
2023/07/27 06:51:24;;;;;;;5.72;4.72;;;;;;;;;;5088898;28;20383;-78
2023/07/27 06:53:50;;;;;;;5.13;4.47;;;;;;;;;;5091703;28;20408;-78
2023/07/27 06:56:17;;;;;;;5.00;4.50;;;;;;;;;;5092405;28;20417;-78
2023/07/27 06:58:43;;;;;;;5.50;4.50;;;;;;;;;;5089628;28;20383;-79
2023/07/27 07:01:10;;;;;;;5.55;4.78;;;;;;;;;;5083537;28;20380;-79
2023/07/27 07:03:36;;;;;;;5.40;4.90;;;;;;;;;;5084753;28;20401;-79
2023/07/27 07:06:02;;;;;;;3.60;3.30;;;;;;;;;;5083417;28;20392;-79
2023/07/27 07:08:29;;;;;;;3.33;3.05;;;;;;;;;;5084478;28;20847;-79
2023/07/27 07:10:55;;;;;;;3.27;2.97;;;;;;;;;;5081807;28;20391;-79
2023/07/27 07:13:24;;;;;;;3.10;2.80;;;;;;;;;;5086286;28;20412;-79
2023/07/27 07:15:50;;;;;;;3.65;3.00;;;;;;;;;;5072379;28;20861;-80
2023/07/27 07:18:16;;;;;;;5.30;4.50;;;;;;;;;;5088667;28;20380;-78
2023/07/27 07:20:43;;;;;;;4.50;3.92;;;;;;;;;;5087991;28;20403;-80
2023/07/27 07:23:09;;;;;;;3.78;3.40;;;;;;;;;;5083754;28;20380;-78
2023/07/27 07:25:35;;;;;;;2.90;2.70;;;;;;;;;;5079105;28;20399;-79
2023/07/27 07:28:01;;;;;;;2.85;2.58;;;;;;;;;;5079131;28;20729;-79
2023/07/27 07:30:27;;;;;;;3.38;2.78;;;;;;;;;;5079356;28;20407;-79
2023/07/27 07:32:53;;;;;;;3.07;2.77;;;;;;;;;;5094073;28;20441;-79
2023/07/27 07:35:20;;;;;;;4.68;4.10;;;;;;;;;;5080457;28;20709;-78
2023/07/27 07:37:47;;;;;;;4.38;3.97;;;;;;;;;;5081491;28;20720;-79
2023/07/27 07:40:13;;;;;;;5.20;4.30;;;;;;;;;;5079474;28;20380;-78
2023/07/27 07:42:39;;;;;;;3.17;2.88;;;;;;;;;;5078951;28;20377;-79
2023/07/27 07:45:06;;;;;;;3.22;2.92;;;;;;;;;;5078571;28;20392;-78
2023/07/27 07:47:32;;;;;;;2.83;2.63;;;;;;;;;;5081014;28;20405;-78
2023/07/27 07:49:59;;;;;;;2.42;2.22;;;;;;;;;;5080909;28;20773;-79
2023/07/27 07:52:25;;;;;;;2.42;2.22;;;;;;;;;;5080647;28;20564;-79
2023/07/27 07:54:51;;;;;;;2.60;2.40;;;;;;;;;;5080866;28;20399;-79
2023/07/27 07:57:19;;;;;;;2.38;2.13;;;;;;;;;;5081355;28;20419;-77
2023/07/27 07:59:45;;;;;;;2.83;2.53;;;;;;;;;;5081077;28;20435;-79
2023/07/27 08:02:11;;;;;;;2.22;2.03;;;;;;;;;;5081326;28;20390;-78
2023/07/27 08:04:38;;;;;;;4.18;2.80;;;;;;;;;;5085315;28;20378;-78
2023/07/27 08:07:04;;;;;;;3.53;2.42;;;;;;;;;;5083194;28;20372;-78
2023/07/27 08:09:30;;;;;;;2.90;2.70;;;;;;;;;;5082243;28;20495;-78
2023/07/27 08:11:56;;;;;;;2.72;2.53;;;;;;;;;;5081667;28;20380;-78
2023/07/27 08:14:23;;;;;;;2.50;2.30;;;;;;;;;;5080920;28;20387;-78
2023/07/27 08:16:49;;;;;;;2.75;2.45;;;;;;;;;;5080142;28;20452;-78
2023/07/27 08:19:15;;;;;;;2.67;2.45;;;;;;;;;;5079430;28;20412;-78
2023/07/27 08:21:41;;;;;;;2.40;2.20;;;;;;;;;;5081457;28;20383;-79
2023/07/27 08:24:07;;;;;;;3.88;2.60;;;;;;;;;;5070758;28;20384;-78
2023/07/27 08:26:33;;;;;;;2.63;2.40;;;;;;;;;;5078262;28;20455;-78
2023/07/27 08:28:59;;;;;;;3.60;2.90;;;;;;;;;;5078569;28;20390;-78
2023/07/27 08:31:25;;;;;;;2.97;2.40;;;;;;;;;;5079291;28;20856;-78
2023/07/27 08:33:51;;;;;;;3.13;2.83;;;;;;;;;;5079676;28;20510;-78
2023/07/27 08:36:17;;;;;;;3.05;2.75;;;;;;;;;;5080822;28;20384;-78
2023/07/27 08:38:43;;;;;;;2.50;2.30;;;;;;;;;;5080641;28;20460;-79
2023/07/27 08:41:09;;;;;;;3.13;2.80;;;;;;;;;;5080464;28;20392;-78
2023/07/27 08:43:36;;;;;;;3.78;3.00;;;;;;;;;;5080676;28;20391;-78
2023/07/27 08:46:03;;;;;;;3.60;2.60;;;;;;;;;;5080800;28;20705;-78
2023/07/27 08:48:29;;;;;;;4.05;2.92;;;;;;;;;;5080484;28;20388;-79
2023/07/27 08:50:57;;;;;;;2.85;2.58;;;;;;;;;;5081072;28;20409;-78
2023/07/27 08:53:25;;;;;;;2.53;2.33;;;;;;;;;;5081307;28;20419;-79
2023/07/27 08:55:51;;;;;;;2.40;2.20;;;;;;;;;;5074195;28;20429;-78
2023/07/27 08:58:18;;;;;;;3.50;2.10;;;;;;;;;;5081514;28;20496;-78
2023/07/27 09:00:44;;;;;;;3.55;1.95;;;;;;;;;;5082227;28;20404;-79
2023/07/27 09:03:10;;;;;;;2.40;2.10;;;;;;;;;;5081020;28;20432;-79
2023/07/27 09:05:40;;;;;;;2.20;1.60;;;;;;;;;;5080216;28;20384;-78
2023/07/27 09:08:07;;;;;;;2.47;2.28;;;;;;;;;;5062562;28;20482;-78
2023/07/27 09:10:34;;;;;;;2.00;1.80;;;;;;;;;;5080297;28;20380;-78
2023/07/27 09:13:00;;;;;;;2.30;1.80;;;;;;;;;;5073317;28;20478;-79
2023/07/27 09:15:26;;;;;;;4.77;2.13;;;;;;;;;;5080552;28;20384;-78
2023/07/27 09:17:52;;;;;;;2.10;1.90;;;;;;;;;;5081006;28;20421;-78
2023/07/27 09:20:18;;;;;;;2.25;1.90;;;;;;;;;;5080886;28;20463;-78
2023/07/27 09:22:45;;;;;;;2.50;2.30;;;;;;;;;;5080433;28;20383;-78
2023/07/27 09:25:11;;;;;;;3.60;2.75;;;;;;;;;;5080475;28;20387;-78
2023/07/27 09:27:44;;;;;;;2.53;1.92;;;;;;;;;;5080604;28;20414;-78
2023/07/27 09:30:11;;;;;;;2.00;1.80;;;;;;;;;;5081621;28;20387;-79
2023/07/27 09:32:37;;;;;;;3.13;1.90;;;;;;;;;;5081164;28;20409;-78
2023/07/27 09:35:03;;;;;;;3.92;2.60;;;;;;;;;;5080955;28;20868;-78
2023/07/27 09:37:29;;;;;;;1.90;1.77;;;;;;;;;;5082156;28;20380;-79
2023/07/27 09:40:09;;;;;;;2.60;1.90;;;;;;;;;;5068419;28;20385;-79
2023/07/27 09:42:35;;;;;;;3.03;1.75;;;;;;;;;;5081667;28;20436;-79
2023/07/27 09:45:01;;;;;;;3.28;2.10;;;;;;;;;;5079569;28;20721;-78
2023/07/27 09:47:31;;;;;;;4.07;2.05;;;;;;;;;;5082447;28;20481;-79
2023/07/27 09:50:00;;;;;;;2.42;1.90;;;;;;;;;;5082774;28;20793;-79
2023/07/27 09:52:27;;;;;;;2.05;1.85;;;;;;;;;;5082183;28;20399;-79
2023/07/27 09:54:55;;;;;;;2.85;1.98;;;;;;;;;;5079350;28;20395;-78
2023/07/27 09:57:21;;;;;;;2.50;2.30;;;;;;;;;;5081751;28;20376;-78
2023/07/27 09:59:48;;;;;;;2.40;2.20;;;;;;;;;;5081651;28;20392;-79
2023/07/27 10:02:14;;;;;;;2.50;2.30;;;;;;;;;;5082209;28;20384;-79
2023/07/27 10:04:42;;;;;;;2.55;2.35;;;;;;;;;;5082830;28;20458;-79
2023/07/27 10:07:08;;;;;;;2.85;2.47;;;;;;;;;;5078254;28;20419;-78
2023/07/27 10:09:35;;;;;;;4.77;2.70;;;;;;;;;;5078591;28;20417;-79
2023/07/27 10:12:01;;;;;;;3.65;2.40;;;;;;;;;;5079320;28;20380;-79
2023/07/27 10:14:28;;;;;;;2.60;2.40;;;;;;;;;;5078897;28;20482;-79
2023/07/27 10:17:04;;;;;;;2.60;2.40;;;;;;;;;;5081105;28;20395;-79
2023/07/27 10:19:48;;;;;;;2.20;2.00;;;;;;;;;;5079569;28;20374;-79
2023/07/27 10:22:15;;;;;;;3.30;2.13;;;;;;;;;;5079948;28;20390;-79
2023/07/27 10:24:52;;;;;;;2.63;2.42;;;;;;;;;;5080290;28;20392;-79
2023/07/27 10:27:21;;;;;;;2.42;2.20;;;;;;;;;;5079689;28;20398;-78
2023/07/27 10:29:48;;;;;;;2.90;2.45;;;;;;;;;;5079327;28;20392;-79
2023/07/27 10:32:15;;;;;;;3.58;2.55;;;;;;;;;;5081166;28;20418;-79
2023/07/27 10:34:41;;;;;;;5.55;2.50;;;;;;;;;;5082185;28;20401;-79
2023/07/27 10:37:08;;;;;;;2.75;2.42;;;;;;;;;;5081100;28;20394;-79
2023/07/27 10:39:35;;;;;;;2.60;2.40;;;;;;;;;;5068773;28;20473;-79
2023/07/27 10:42:08;;;;;;;3.70;2.40;;;;;;;;;;5080736;28;20384;-80
2023/07/27 10:44:43;;;;;;;3.33;2.72;;;;;;;;;;5078530;28;20398;-79
2023/07/27 10:47:10;;;;;;;2.85;2.50;;;;;;;;;;5079547;28;20375;-80
2023/07/27 10:49:43;;;;;;;3.20;2.80;;;;;;;;;;5080519;28;20391;-79
2023/07/27 10:52:10;;;;;;;2.90;2.60;;;;;;;;;;5081469;28;20380;-79
2023/07/27 10:54:40;;;;;;;3.47;2.60;;;;;;;;;;5070633;28;20895;-79
2023/07/27 10:57:07;;;;;;;3.10;2.80;;;;;;;;;;5081958;28;20375;-79
2023/07/27 10:59:38;;;;;;;3.17;2.70;;;;;;;;;;5073466;28;20394;-79
2023/07/27 11:02:05;;;;;;;3.60;2.47;;;;;;;;;;5081934;28;20443;-80
2023/07/27 11:04:34;;;;;;;3.40;2.30;;;;;;;;;;5081999;28;20384;-80
2023/07/27 11:07:00;;;;;;;2.90;2.40;;;;;;;;;;5081835;28;20399;-81
2023/07/27 11:09:26;;;;;;;2.97;1.93;;;;;;;;;;5080703;28;20729;-81
2023/07/27 11:12:00;;;;;;;2.60;2.40;;;;;;;;;;5080821;28;21048;-80
2023/07/27 11:14:26;;;;;;;2.83;2.60;;;;;;;;;;5078692;28;20386;-81
2023/07/27 11:16:53;;;;;;;2.40;2.20;;;;;;;;;;5065028;28;20392;-81
2023/07/27 11:19:19;;;;;;;2.80;2.17;;;;;;;;;;5076904;28;20376;-80
2023/07/27 11:21:45;;;;;;;2.30;2.10;;;;;;;;;;5073869;28;20447;-80
2023/07/27 11:24:11;;;;;;;3.85;2.15;;;;;;;;;;5079633;28;20388;-80
2023/07/27 11:26:38;;;;;;;2.77;2.40;;;;;;;;;;5073189;28;20441;-80
2023/07/27 11:29:05;;;;;;;2.80;2.15;;;;;;;;;;5077478;28;20395;-80
2023/07/27 11:31:31;;;;;;;2.80;2.30;;;;;;;;;;5079958;28;20390;-80
2023/07/27 11:33:58;;;;;;;2.85;2.13;;;;;;;;;;5079764;28;20491;-80
2023/07/27 11:36:27;;;;;;;3.90;2.22;;;;;;;;;;5065256;28;20461;-80
2023/07/27 11:38:54;;;;;;;2.88;2.67;;;;;;;;;;5087282;28;20403;-80
2023/07/27 11:41:20;;;;;;;2.63;2.38;;;;;;;;;;5075806;28;20465;-81
2023/07/27 11:43:50;;;;;;;2.40;2.20;;;;;;;;;;5053909;28;20392;-80
2023/07/27 11:46:16;;;;;;;2.50;2.30;;;;;;;;;;5079140;28;20371;-80
2023/07/27 11:48:42;;;;;;;2.13;1.93;;;;;;;;;;5061413;28;20381;-80
2023/07/27 11:51:08;;;;;;;2.25;1.90;;;;;;;;;;5073495;28;20391;-80
2023/07/27 11:53:34;;;;;;;1.90;1.80;;;;;;;;;;5070943;28;20424;-80
2023/07/27 11:56:00;;;;;;;2.60;1.98;;;;;;;;;;5079118;28;20386;-80
2023/07/27 11:58:27;;;;;;;2.38;1.90;;;;;;;;;;5073363;28;20388;-80
2023/07/27 12:00:54;;;;;;;2.20;1.90;;;;;;;;;;5079211;28;20426;-80
2023/07/27 12:03:21;;;;;;;2.30;2.05;;;;;;;;;;5078568;28;20822;-80
2023/07/27 12:05:48;;;;;;;3.00;2.20;;;;;;;;;;5078474;28;21841;-80
2023/07/27 12:08:21;;;;;;;2.85;2.42;;;;;;;;;;5079325;28;20380;-80
2023/07/27 12:10:53;;;;;;;3.25;2.50;;;;;;;;;;5079062;28;20419;-79
2023/07/27 12:13:26;;;;;;;2.17;1.98;;;;;;;;;;5079125;28;20422;-80
2023/07/27 12:16:03;;;;;;;2.65;2.08;;;;;;;;;;5079248;28;20391;-80
2023/07/27 12:18:30;;;;;;;1.95;1.80;;;;;;;;;;5078512;28;20387;-80
2023/07/27 12:20:56;;;;;;;2.33;2.03;;;;;;;;;;5078150;28;20384;-80
2023/07/27 12:23:22;;;;;;;4.00;2.00;;;;;;;;;;5079392;28;20383;-79
2023/07/27 12:25:52;;;;;;;1.83;1.67;;;;;;;;;;5078726;28;20383;-79
2023/07/27 12:28:18;;;;;;;2.10;1.90;;;;;;;;;;5078798;28;20955;-79
2023/07/27 12:30:44;;;;;;;2.28;1.90;;;;;;;;;;5060308;28;20380;-79
2023/07/27 12:33:10;;;;;;;2.88;1.90;;;;;;;;;;5078577;28;20434;-79
2023/07/27 12:35:36;;;;;;;1.80;1.70;;;;;;;;;;5077933;28;20390;-79
2023/07/27 12:38:02;;;;;;;1.92;1.83;;;;;;;;;;5078190;28;20375;-79
2023/07/27 12:40:28;;;;;;;2.33;1.70;;;;;;;;;;5077967;28;20849;-79
2023/07/27 12:42:55;;;;;;;2.22;1.75;;;;;;;;;;5078447;28;20846;-79
2023/07/27 12:45:21;;;;;;;2.80;1.73;;;;;;;;;;5078257;28;20481;-79
2023/07/27 12:47:48;;;;;;;1.70;1.60;;;;;;;;;;5071812;28;20387;-79
2023/07/27 12:50:14;;;;;;;2.28;1.60;;;;;;;;;;5078923;28;20417;-80
2023/07/27 12:52:41;;;;;;;2.78;1.80;;;;;;;;;;5078874;28;20418;-81
2023/07/27 12:55:09;;;;;;;2.15;1.65;;;;;;;;;;5077169;28;20449;-81
2023/07/27 12:57:35;;;;;;;1.60;1.40;;;;;;;;;;5078763;28;20388;-81
2023/07/27 13:00:01;;;;;;;2.40;1.55;;;;;;;;;;5062854;28;20375;-78
2023/07/27 13:02:27;;;;;;;2.20;1.65;;;;;;;;;;5077051;28;20378;-79
2023/07/27 13:04:53;;;;;;;1.92;1.73;;;;;;;;;;5075028;28;20744;-78
2023/07/27 13:07:19;;;;;;;1.60;1.40;;;;;;;;;;5076214;28;20380;-79
2023/07/27 13:09:45;;;;;;;1.48;1.38;;;;;;;;;;5077717;28;20399;-79
2023/07/27 13:12:11;;;;;;;2.53;1.63;;;;;;;;;;5077585;28;20386;-79
2023/07/27 13:14:37;;;;;;;2.30;1.50;;;;;;;;;;5077234;28;20383;-78
2023/07/27 13:17:03;;;;;;;1.40;1.30;;;;;;;;;;5070722;28;20442;-78
2023/07/27 13:19:29;;;;;;;1.60;1.50;;;;;;;;;;5081488;28;20402;-80
2023/07/27 13:21:56;;;;;;;1.75;1.10;;;;;;;;;;5080898;28;20383;-79
2023/07/27 13:24:22;;;;;;;1.50;1.40;;;;;;;;;;5073330;28;20431;-79
2023/07/27 13:26:48;;;;;;;1.80;1.50;;;;;;;;;;5076067;28;20386;-79
2023/07/27 13:29:15;;;;;;;1.40;1.30;;;;;;;;;;5081265;28;20376;-79
2023/07/27 13:31:42;;;;;;;2.00;1.45;;;;;;;;;;5082597;28;20442;-79
2023/07/27 13:34:08;;;;;;;2.30;1.50;;;;;;;;;;5083847;28;20437;-79
2023/07/27 13:36:34;;;;;;;2.80;1.48;;;;;;;;;;5082682;28;20387;-79
2023/07/27 13:39:00;;;;;;;2.20;1.30;;;;;;;;;;5072525;28;20437;-81
2023/07/27 13:41:25;;;;;;;3.17;1.35;;;;;;;;;;5082657;28;20387;-81
2023/07/27 13:43:53;;;;;;;1.60;1.40;;;;;;;;;;5082151;28;20391;-81
2023/07/27 13:46:19;;;;;;;2.60;1.40;;;;;;;;;;5079123;28;20378;-81
2023/07/27 13:48:45;;;;;;;3.33;1.55;;;;;;;;;;5081562;28;20439;-82
2023/07/27 13:51:11;;;;;;;2.20;1.42;;;;;;;;;;5082078;28;20423;-80
2023/07/27 13:53:37;;;;;;;3.30;1.80;;;;;;;;;;5082548;28;20407;-81
2023/07/27 13:56:04;;;;;;;2.00;1.50;;;;;;;;;;5082241;28;21056;-80
2023/07/27 13:58:30;;;;;;;2.85;1.90;;;;;;;;;;5086539;28;20378;-80
2023/07/27 14:00:56;;;;;;;2.25;1.50;;;;;;;;;;5088338;28;20874;-80
2023/07/27 14:03:22;;;;;;;2.67;1.63;;;;;;;;;;5084151;28;20378;-80
2023/07/27 14:05:48;;;;;;;2.20;1.70;;;;;;;;;;5090435;28;20384;-81
2023/07/27 14:08:15;;;;;;;1.90;1.63;;;;;;;;;;5082760;28;20430;-81
2023/07/27 14:10:41;;;;;;;1.92;1.70;;;;;;;;;;5073621;28;20384;-81
2023/07/27 14:13:07;;;;;;;2.35;1.75;;;;;;;;;;5083777;28;20418;-81
2023/07/27 14:15:33;;;;;;;6.93;2.10;;;;;;;;;;5083012;28;20852;-81
2023/07/27 14:18:00;;;;;;;3.20;1.70;;;;;;;;;;5082877;28;20383;-81
2023/07/27 14:20:27;;;;;;;1.70;1.60;;;;;;;;;;5081110;28;20376;-81
2023/07/27 14:22:53;;;;;;;3.25;1.90;;;;;;;;;;5082444;28;20396;-81
2023/07/27 14:25:19;;;;;;;2.05;1.85;;;;;;;;;;5081594;28;20368;-81
2023/07/27 14:27:45;;;;;;;1.73;1.30;;;;;;;;;;5064450;28;20455;-81
2023/07/27 14:30:11;;;;;;;2.05;1.85;;;;;;;;;;5079959;28;20380;-81
2023/07/27 14:32:37;;;;;;;1.90;1.63;;;;;;;;;;5082362;28;20415;-80
2023/07/27 14:35:03;;;;;;;1.50;1.40;;;;;;;;;;5082260;28;20380;-80
2023/07/27 14:37:29;;;;;;;2.15;1.95;;;;;;;;;;5081310;28;20384;-81
2023/07/27 14:39:55;;;;;;;1.80;1.70;;;;;;;;;;5080220;28;20380;-81